Time;durP1;ratioP1;P1;durP2;ratioP2;P2;SDS_P1;SDS_P2;PMS_P1;PMS_P2;Temp;Humidity;BMP_temperature;BMP_pressure;BME280_temperature;BME280_humidity;BME280_pressure;Samples;Min_cycle;Max_cycle;Signal;HPM_P1;HPM_P2
2021/05/31 00:02:12;;;;;;;18.85;13.73;;;;;;;13.17;88.15;102027.91;4963231;28;20125;-85
2021/05/31 00:04:37;;;;;;;19.95;14.27;;;;;;;13.15;88.11;102024.56;5008837;28;20077;-84
2021/05/31 00:07:07;;;;;;;23.17;14.43;;;;;;;13.14;87.84;102022.84;4959622;28;20042;-83
2021/05/31 00:09:34;;;;;;;23.30;14.90;;;;;;;13.13;88.46;102012.22;4994136;28;20050;-84
2021/05/31 00:11:59;;;;;;;20.05;14.50;;;;;;;13.08;88.39;102013.50;5000794;28;20418;-83
2021/05/31 00:14:26;;;;;;;25.50;14.88;;;;;;;12.97;89.69;102011.03;4982932;28;20053;-84
2021/05/31 00:16:52;;;;;;;23.95;14.30;;;;;;;12.92;89.75;102007.06;4993662;28;20344;-83
2021/05/31 00:19:19;;;;;;;20.23;15.60;;;;;;;12.89;89.98;102005.56;5006552;28;20046;-83
2021/05/31 00:21:45;;;;;;;23.17;15.57;;;;;;;12.81;90.60;102000.91;4985178;28;20081;-84
2021/05/31 00:24:11;;;;;;;25.45;15.77;;;;;;;12.85;90.10;102017.63;4968932;28;20049;-84
2021/05/31 00:26:36;;;;;;;21.20;15.05;;;;;;;12.80;90.78;102004.63;4983555;28;20442;-84
2021/05/31 00:29:03;;;;;;;24.45;15.52;;;;;;;12.78;90.56;102011.97;5006046;28;20214;-84
2021/05/31 00:31:28;;;;;;;23.40;15.15;;;;;;;12.78;90.49;102008.44;4990711;28;20049;-83
2021/05/31 00:33:56;;;;;;;22.90;15.57;;;;;;;12.72;90.40;102004.50;5008539;28;20037;-83
2021/05/31 00:36:21;;;;;;;26.05;16.02;;;;;;;12.65;91.39;102004.22;4984155;28;20140;-83
2021/05/31 00:38:46;;;;;;;23.63;16.02;;;;;;;12.58;91.79;101999.59;4994016;28;20474;-84
2021/05/31 00:41:12;;;;;;;21.40;16.13;;;;;;;12.53;91.14;101997.34;4986002;28;20467;-83
2021/05/31 00:43:37;;;;;;;24.65;15.57;;;;;;;12.50;91.71;101999.50;4994192;28;20538;-83
2021/05/31 00:46:05;;;;;;;23.77;15.63;;;;;;;12.46;92.33;102006.16;4972241;28;20482;-82
2021/05/31 00:48:31;;;;;;;22.77;16.60;;;;;;;12.44;92.15;102000.09;4982589;28;20501;-83
2021/05/31 00:50:58;;;;;;;24.33;16.80;;;;;;;12.34;93.16;102003.66;5004876;28;20053;-83
2021/05/31 00:53:25;;;;;;;30.83;17.58;;;;;;;12.33;93.12;101991.19;4985383;28;20061;-83
2021/05/31 00:55:50;;;;;;;25.63;16.40;;;;;;;12.30;93.63;102001.41;4986611;28;20046;-83
2021/05/31 00:58:19;;;;;;;23.40;16.90;;;;;;;12.28;93.63;101995.31;4970036;28;20053;-83
2021/05/31 01:00:44;;;;;;;24.17;17.10;;;;;;;12.22;93.70;101996.72;4966559;28;20069;-83
2021/05/31 01:03:12;;;;;;;26.45;17.45;;;;;;;12.26;93.13;101998.16;4968107;28;20038;-84
2021/05/31 01:05:38;;;;;;;25.45;17.13;;;;;;;12.23;93.24;102001.13;4976213;28;20034;-84
2021/05/31 01:08:09;;;;;;;25.95;17.98;;;;;;;12.18;93.12;101998.03;4984089;28;20042;-84
2021/05/31 01:10:58;;;;;;;26.77;17.73;;;;;;;12.15;93.02;101992.94;5001966;28;20160;-84
2021/05/31 01:13:45;;;;;;;28.17;18.50;;;;;;;12.10;93.47;101997.91;4999742;28;20390;-85
2021/05/31 01:16:13;;;;;;;29.80;18.08;;;;;;;12.10;93.33;101997.91;4980773;28;20502;-82
2021/05/31 01:18:50;;;;;;;28.70;18.15;;;;;;;12.05;94.02;101997.47;5002364;28;20033;-84
2021/05/31 01:21:25;;;;;;;28.10;17.27;;;;;;;11.94;94.72;101996.66;4985941;28;20053;-82
2021/05/31 01:24:02;;;;;;;26.80;17.40;;;;;;;11.95;93.55;101990.28;4990662;28;20042;-83
2021/05/31 01:26:47;;;;;;;28.15;17.83;;;;;;;11.92;94.11;102003.19;4983909;28;20319;-82
2021/05/31 01:29:13;;;;;;;30.00;18.65;;;;;;;11.91;94.37;101993.38;4988524;28;20138;-83
2021/05/31 01:31:48;;;;;;;24.25;18.00;;;;;;;11.88;94.19;101988.28;4981088;28;20129;-83
2021/05/31 01:34:21;;;;;;;24.52;18.42;;;;;;;11.88;93.90;101997.25;4992580;28;20065;-82
2021/05/31 01:36:58;;;;;;;28.13;19.17;;;;;;;11.85;94.17;101986.75;4951059;28;20052;-84
2021/05/31 01:39:28;;;;;;;29.17;18.38;;;;;;;11.82;93.83;101989.69;4980827;28;20553;-83
2021/05/31 01:41:55;;;;;;;27.50;19.05;;;;;;;11.78;93.97;101988.28;5001037;28;20141;-85
2021/05/31 01:44:20;;;;;;;28.60;19.60;;;;;;;11.71;93.93;101987.19;4972930;28;20124;-85
2021/05/31 01:46:47;;;;;;;30.35;20.67;;;;;;;11.68;94.45;101991.00;4989630;28;20125;-84
2021/05/31 01:49:14;;;;;;;32.20;19.80;;;;;;;11.66;94.53;101987.59;5006897;28;20248;-82
2021/05/31 01:51:40;;;;;;;30.88;20.58;;;;;;;11.64;94.97;101988.72;4978506;28;20490;-83
2021/05/31 01:54:08;;;;;;;34.00;21.65;;;;;;;11.62;95.64;101988.00;4988072;28;20048;-83
2021/05/31 01:56:35;;;;;;;33.67;22.65;;;;;;;11.60;95.78;101987.31;4960825;28;20100;-84
2021/05/31 01:59:02;;;;;;;33.20;21.60;;;;;;;11.57;95.87;101982.22;4994434;28;20077;-84
2021/05/31 02:01:27;;;;;;;31.67;21.70;;;;;;;11.56;96.08;101985.88;4965313;28;20076;-83
2021/05/31 02:03:53;;;;;;;32.95;22.15;;;;;;;11.48;95.99;101981.25;4995594;28;20081;-82
2021/05/31 02:06:18;;;;;;;33.35;21.90;;;;;;;11.43;96.62;101973.59;4988224;28;20049;-84
2021/05/31 02:08:44;;;;;;;31.90;21.10;;;;;;;11.43;96.52;101987.03;4960824;28;20042;-84
2021/05/31 02:11:25;;;;;;;37.97;23.70;;;;;;;11.35;98.16;101981.50;4982230;28;20423;-85
2021/05/31 02:13:55;;;;;;;34.03;23.20;;;;;;;11.37;97.35;101976.84;4965317;28;20192;-83
2021/05/31 02:16:33;;;;;;;33.80;22.63;;;;;;;11.39;97.17;101979.38;4985580;28;20080;-83
2021/05/31 02:19:01;;;;;;;34.35;22.70;;;;;;;11.37;96.76;101970.63;5007604;28;20049;-86
2021/05/31 02:21:28;;;;;;;39.95;25.13;;;;;;;11.36;96.95;101975.13;5003033;28;20058;-84
2021/05/31 02:23:53;;;;;;;40.25;24.63;;;;;;;11.32;97.43;101967.50;4954935;28;20494;-84
2021/05/31 02:26:20;;;;;;;36.60;23.80;;;;;;;11.32;97.14;101972.88;4988575;28;20112;-84
2021/05/31 02:28:47;;;;;;;36.25;23.80;;;;;;;11.32;97.07;101965.66;4995904;28;20100;-84
2021/05/31 02:31:15;;;;;;;39.17;25.10;;;;;;;11.29;97.61;101964.09;4982685;28;20505;-82
2021/05/31 02:33:40;;;;;;;39.53;24.53;;;;;;;11.28;97.47;101966.94;4960907;28;20050;-83
2021/05/31 02:36:06;;;;;;;45.35;27.00;;;;;;;11.27;97.50;101967.91;4978993;28;20257;-83
2021/05/31 02:38:32;;;;;;;43.75;25.77;;;;;;;11.26;97.35;101975.13;4985451;28;20548;-83
2021/05/31 02:40:58;;;;;;;41.95;25.73;;;;;;;11.23;97.33;101971.88;4990041;28;20134;-82
2021/05/31 02:43:24;;;;;;;41.47;27.67;;;;;;;11.23;97.61;101963.81;4989837;28;20129;-85
2021/05/31 02:45:49;;;;;;;44.95;26.27;;;;;;;11.18;97.96;101974.97;4986495;28;20037;-81
2021/05/31 02:48:15;;;;;;;43.83;25.92;;;;;;;11.18;97.92;101976.81;4987365;28;20133;-83
2021/05/31 02:50:40;;;;;;;41.40;24.45;;;;;;;11.20;97.11;101974.84;4988441;28;20085;-84
2021/05/31 02:53:07;;;;;;;38.72;25.75;;;;;;;11.17;97.51;101972.44;4996234;28;20034;-83
2021/05/31 02:55:36;;;;;;;42.63;26.98;;;;;;;11.18;97.68;101966.91;4985340;28;20486;-82
2021/05/31 02:58:01;;;;;;;41.85;26.65;;;;;;;11.15;97.76;101967.19;4982564;28;20046;-84
2021/05/31 03:00:28;;;;;;;42.45;26.92;;;;;;;11.12;98.77;101978.22;4977454;28;20092;-82
2021/05/31 03:02:54;;;;;;;48.90;27.85;;;;;;;11.13;97.94;101963.78;4981746;28;20188;-83
2021/05/31 03:05:26;;;;;;;48.20;25.77;;;;;;;11.11;98.26;101970.31;4995679;28;20037;-83
2021/05/31 03:07:52;;;;;;;48.70;27.67;;;;;;;11.12;98.41;101969.31;4990239;28;20158;-84
2021/05/31 03:10:18;;;;;;;51.95;29.92;;;;;;;11.07;98.04;101967.03;4980699;28;20463;-83
2021/05/31 03:12:44;;;;;;;47.10;28.63;;;;;;;11.05;98.33;101966.34;4991130;28;20338;-84
2021/05/31 03:15:12;;;;;;;47.03;30.05;;;;;;;11.04;98.47;101964.63;4996845;28;20046;-82
2021/05/31 03:17:38;;;;;;;45.35;28.88;;;;;;;11.03;98.39;101968.31;4955446;28;20086;-84
2021/05/31 03:20:05;;;;;;;47.95;29.35;;;;;;;10.98;98.71;101971.41;4984376;28;20517;-83
2021/05/31 03:22:31;;;;;;;49.63;30.88;;;;;;;10.97;99.06;101972.41;4982457;28;20453;-83
2021/05/31 03:24:56;;;;;;;50.35;30.63;;;;;;;10.96;98.81;101970.72;4983721;28;20351;-84
2021/05/31 03:27:22;;;;;;;49.45;30.92;;;;;;;10.95;99.12;101970.84;4984759;28;20117;-83
2021/05/31 03:29:47;;;;;;;57.35;32.10;;;;;;;10.95;98.95;101976.22;4972076;28;20033;-83
2021/05/31 03:32:12;;;;;;;48.65;29.27;;;;;;;10.97;99.37;101976.94;4986061;28;20067;-83
2021/05/31 03:34:38;;;;;;;50.92;30.13;;;;;;;10.94;99.62;101970.00;4971596;28;20463;-83
2021/05/31 03:37:03;;;;;;;50.50;31.52;;;;;;;10.95;99.56;101981.59;4998249;28;20087;-82
2021/05/31 03:39:29;;;;;;;51.85;31.67;;;;;;;10.93;99.65;101979.00;4998074;28;20046;-84
2021/05/31 03:41:55;;;;;;;59.75;32.22;;;;;;;10.94;99.71;101974.53;4987902;28;20038;-83
2021/05/31 03:44:21;;;;;;;48.85;31.30;;;;;;;10.92;99.69;101977.34;4960322;28;20053;-84
2021/05/31 03:46:46;;;;;;;54.20;32.75;;;;;;;10.92;99.25;101976.47;4996804;28;20050;-86
2021/05/31 03:49:11;;;;;;;54.85;33.95;;;;;;;10.92;99.44;101973.81;4980718;28;20487;-82
2021/05/31 03:51:37;;;;;;;53.53;32.85;;;;;;;10.91;99.64;101970.28;4977397;28;20399;-82
2021/05/31 03:54:02;;;;;;;56.05;33.75;;;;;;;10.89;99.54;101974.91;4984912;28;20412;-82
2021/05/31 03:56:28;;;;;;;60.17;32.15;;;;;;;10.87;100.00;101974.19;4970692;28;20424;-86
2021/05/31 03:58:54;;;;;;;52.40;32.78;;;;;;;10.88;99.87;101970.56;5001766;28;20049;-85
2021/05/31 04:01:19;;;;;;;62.80;34.67;;;;;;;10.87;100.00;101973.34;4998740;28;20376;-84
2021/05/31 04:03:45;;;;;;;52.70;33.03;;;;;;;10.86;100.00;101980.56;4967139;28;20148;-83
2021/05/31 04:11:40;;;;;;;58.17;32.65;;;;;;;10.87;99.99;101984.94;4996318;28;20144;-83
2021/05/31 04:14:14;;;;;;;54.70;32.72;;;;;;;10.88;100.00;101985.81;5005466;28;20042;-83
2021/05/31 04:16:47;;;;;;;54.13;34.03;;;;;;;10.87;100.00;101990.31;4975392;28;20042;-82
2021/05/31 04:19:14;;;;;;;57.00;34.25;;;;;;;10.89;100.00;101985.66;5001118;28;20046;-82
2021/05/31 04:21:43;;;;;;;61.58;34.17;;;;;;;10.89;100.00;101988.34;4963827;28;20494;-84
2021/05/31 04:24:10;;;;;;;58.05;35.28;;;;;;;10.86;100.00;101988.63;4987309;28;20038;-84
2021/05/31 04:26:35;;;;;;;58.47;33.53;;;;;;;10.89;100.00;101987.50;5002852;28;20057;-84
2021/05/31 04:29:03;;;;;;;61.78;34.80;;;;;;;10.89;100.00;101982.97;4985491;28;20660;-82
2021/05/31 04:31:28;;;;;;;56.35;33.10;;;;;;;10.94;100.00;101983.41;4985110;28;20104;-83
2021/05/31 04:33:55;;;;;;;58.47;33.50;;;;;;;10.96;100.00;101978.78;4992368;28;20050;-82
2021/05/31 04:36:20;;;;;;;57.25;34.67;;;;;;;10.96;100.00;101983.25;4984308;28;20038;-83
2021/05/31 04:38:46;;;;;;;57.28;34.83;;;;;;;10.98;100.00;101975.94;5000150;28;20046;-83
2021/05/31 04:41:11;;;;;;;58.50;34.35;;;;;;;11.02;100.00;101980.91;5004879;28;20160;-83
2021/05/31 04:43:37;;;;;;;61.63;35.45;;;;;;;11.04;100.00;101978.91;5007501;28;20091;-84
2021/05/31 04:46:03;;;;;;;67.88;36.95;;;;;;;11.08;100.00;101984.88;5004088;28;20386;-84
2021/05/31 04:48:30;;;;;;;59.00;33.67;;;;;;;11.11;100.00;101975.69;4978898;28;20046;-86
2021/05/31 04:50:58;;;;;;;61.95;35.53;;;;;;;11.17;100.00;101980.50;4977189;28;20049;-83
2021/05/31 04:53:28;;;;;;;62.00;35.33;;;;;;;11.19;100.00;101982.06;4980127;28;20390;-84
2021/05/31 04:55:54;;;;;;;59.50;33.13;;;;;;;11.23;99.84;101974.56;4984693;28;20050;-83
2021/05/31 04:58:21;;;;;;;59.90;34.45;;;;;;;11.27;99.75;101970.59;4985757;28;20053;-82
2021/05/31 05:00:47;;;;;;;58.50;35.22;;;;;;;11.27;99.87;101970.59;4994885;28;20046;-82
2021/05/31 05:03:13;;;;;;;59.33;34.42;;;;;;;11.32;100.00;101967.50;4992519;28;20080;-84
2021/05/31 05:05:38;;;;;;;58.35;32.92;;;;;;;11.31;100.00;101974.72;4973677;28;20256;-82
2021/05/31 05:08:04;;;;;;;59.03;35.25;;;;;;;11.35;100.00;101967.22;4987423;28;20054;-84
2021/05/31 05:10:29;;;;;;;55.92;33.10;;;;;;;11.35;100.00;101964.53;4981122;28;20052;-84
2021/05/31 05:12:55;;;;;;;51.53;32.63;;;;;;;11.46;100.00;101965.25;4983847;28;20042;-83
2021/05/31 05:15:22;;;;;;;56.08;34.00;;;;;;;11.57;100.00;101968.78;4979000;28;20042;-83
2021/05/31 05:17:48;;;;;;;57.83;33.35;;;;;;;11.62;100.00;101975.41;4990048;28;20070;-82
2021/05/31 05:20:15;;;;;;;56.22;34.15;;;;;;;11.68;99.85;101964.09;5012448;28;20049;-84
2021/05/31 05:22:42;;;;;;;55.00;33.10;;;;;;;11.70;99.97;101967.47;4973174;28;20050;-82
2021/05/31 05:25:09;;;;;;;61.47;33.47;;;;;;;11.77;99.32;101966.91;4991918;28;20044;-83
2021/05/31 05:27:35;;;;;;;54.75;33.53;;;;;;;11.83;99.33;101959.13;4979164;28;20120;-82
2021/05/31 05:30:00;;;;;;;53.80;33.60;;;;;;;11.93;99.23;101957.28;4999497;28;20351;-84
2021/05/31 05:32:25;;;;;;;57.92;32.22;;;;;;;11.96;98.78;101961.53;4955233;28;20057;-85
2021/05/31 05:34:56;;;;;;;55.03;33.97;;;;;;;12.07;98.14;101955.16;4984298;28;20077;-82
2021/05/31 05:37:30;;;;;;;50.95;33.28;;;;;;;12.10;98.00;101957.53;4976651;28;20042;-83
2021/05/31 05:49:48;;;;;;;49.40;31.35;;;;;;;12.45;98.33;101966.78;4976978;28;20741;-82
2021/05/31 05:52:14;;;;;;;48.15;30.98;;;;;;;12.54;97.14;101965.88;4993221;28;20063;-85
2021/05/31 05:54:40;;;;;;;48.05;30.23;;;;;;;12.64;96.92;101966.69;4984502;28;20426;-83
2021/05/31 05:57:06;;;;;;;50.45;32.67;;;;;;;12.74;96.60;101962.09;4984405;28;20034;-84
2021/05/31 05:59:32;;;;;;;47.85;31.30;;;;;;;12.82;95.85;101964.88;4999242;28;20376;-86
2021/05/31 06:01:58;;;;;;;49.42;30.70;;;;;;;12.88;95.91;101964.28;4986000;28;20495;-86
2021/05/31 06:04:23;;;;;;;48.40;29.98;;;;;;;12.99;96.09;101954.31;4965099;28;20097;-84
2021/05/31 06:06:49;;;;;;;48.92;31.52;;;;;;;13.10;94.83;101967.56;4997055;28;20046;-86
2021/05/31 06:09:17;;;;;;;48.67;29.63;;;;;;;13.12;95.36;101964.69;4969029;28;20053;-84
2021/05/31 06:11:43;;;;;;;45.95;30.15;;;;;;;13.16;94.76;101966.94;4952669;28;20601;-84
2021/05/31 06:14:11;;;;;;;48.22;31.13;;;;;;;13.32;94.36;101960.88;4992262;28;20046;-84
2021/05/31 06:16:37;;;;;;;45.13;30.27;;;;;;;13.39;94.13;101963.84;4969082;28;20057;-83
2021/05/31 06:19:03;;;;;;;49.17;31.10;;;;;;;13.49;93.30;101967.28;4969436;28;20474;-84
2021/05/31 06:21:29;;;;;;;43.75;30.00;;;;;;;13.57;92.79;101967.34;4979468;28;20046;-85
2021/05/31 06:23:54;;;;;;;43.80;30.00;;;;;;;13.69;92.51;101954.47;4985723;28;20103;-83
2021/05/31 06:26:21;;;;;;;41.60;28.00;;;;;;;13.73;91.59;101951.31;4990519;28;20038;-85
2021/05/31 06:28:46;;;;;;;44.50;28.30;;;;;;;13.80;91.66;101959.63;4987374;28;20046;-84
2021/05/31 06:31:12;;;;;;;41.28;28.08;;;;;;;13.91;92.19;101951.28;4986404;28;20046;-83
2021/05/31 06:33:37;;;;;;;42.67;27.98;;;;;;;13.98;91.73;101946.09;4987093;28;20045;-83
2021/05/31 06:36:07;;;;;;;42.08;28.13;;;;;;;14.06;91.79;101954.22;4976603;28;20037;-83
2021/05/31 06:38:33;;;;;;;41.13;28.00;;;;;;;14.14;90.65;101951.59;4966243;28;20036;-85
2021/05/31 06:40:59;;;;;;;40.50;27.52;;;;;;;14.27;91.54;101950.31;4993027;28;20188;-84
2021/05/31 06:43:24;;;;;;;40.65;27.77;;;;;;;14.36;90.25;101952.91;4989706;28;20410;-84
2021/05/31 06:45:50;;;;;;;41.35;28.13;;;;;;;14.40;90.93;101951.56;4984145;28;20053;-83
2021/05/31 06:48:15;;;;;;;44.97;29.10;;;;;;;14.48;91.73;101953.47;4983192;28;20578;-83
2021/05/31 06:50:44;;;;;;;45.92;29.90;;;;;;;14.60;91.71;101949.50;4991273;28;20445;-83
2021/05/31 06:53:10;;;;;;;43.88;29.42;;;;;;;14.61;90.77;101953.88;4966999;28;20156;-83
2021/05/31 06:55:35;;;;;;;44.08;28.85;;;;;;;14.60;90.86;101957.59;4970339;28;20645;-84
2021/05/31 06:58:01;;;;;;;39.42;28.02;;;;;;;14.58;90.70;101956.91;4980477;28;20050;-83
2021/05/31 07:00:27;;;;;;;43.92;28.13;;;;;;;14.54;90.17;101958.25;4974458;28;20915;-83
2021/05/31 07:02:53;;;;;;;41.92;28.75;;;;;;;14.51;90.11;101958.53;4994646;28;20495;-85
2021/05/31 07:05:19;;;;;;;43.75;27.45;;;;;;;14.57;90.38;101968.72;4985275;28;20037;-84
2021/05/31 07:07:45;;;;;;;42.60;29.52;;;;;;;14.62;90.42;101961.00;4971301;28;20140;-84
2021/05/31 07:10:12;;;;;;;43.10;30.17;;;;;;;14.57;91.47;101962.50;4970157;28;20662;-84
2021/05/31 07:12:38;;;;;;;39.83;27.98;;;;;;;14.55;91.24;101962.63;4969781;28;20050;-83
2021/05/31 07:15:06;;;;;;;43.50;29.48;;;;;;;14.65;91.09;101954.44;4967734;28;20038;-83
2021/05/31 07:17:36;;;;;;;42.97;29.20;;;;;;;14.74;90.91;101955.31;4982795;28;20072;-85
2021/05/31 07:20:07;;;;;;;41.60;28.65;;;;;;;14.75;91.07;101960.53;4993549;28;20422;-84
2021/05/31 07:22:33;;;;;;;42.08;27.80;;;;;;;14.83;91.48;101959.72;4965459;28;20411;-84
2021/05/31 07:24:59;;;;;;;41.60;28.30;;;;;;;14.91;90.66;101953.50;4975685;28;20049;-84
2021/05/31 07:27:24;;;;;;;39.40;28.13;;;;;;;14.84;89.86;101954.13;4966576;28;20038;-85
2021/05/31 07:29:51;;;;;;;38.05;26.63;;;;;;;14.82;90.03;101958.88;4984116;28;20050;-84
2021/05/31 07:32:17;;;;;;;38.35;27.58;;;;;;;14.94;90.73;101953.16;4976204;28;20045;-84
2021/05/31 07:34:43;;;;;;;39.30;28.05;;;;;;;14.98;89.21;101955.34;4984648;28;20252;-85
2021/05/31 07:37:09;;;;;;;36.05;26.98;;;;;;;15.00;90.67;101957.91;4983812;28;20050;-84
2021/05/31 07:39:35;;;;;;;36.30;27.23;;;;;;;15.12;89.47;101951.19;4967408;28;20050;-84
2021/05/31 07:42:02;;;;;;;37.08;26.48;;;;;;;15.19;89.90;101952.22;4995702;28;20042;-84
2021/05/31 07:44:27;;;;;;;37.67;27.02;;;;;;;15.23;89.12;101945.44;4988355;28;20042;-85
2021/05/31 07:46:53;;;;;;;39.80;27.42;;;;;;;15.29;89.28;101947.47;4984191;28;20508;-84
2021/05/31 07:49:18;;;;;;;35.80;27.17;;;;;;;15.32;89.62;101949.00;4991192;28;20100;-85
2021/05/31 07:51:45;;;;;;;37.30;27.27;;;;;;;15.41;89.54;101945.28;5003218;28;20133;-84
2021/05/31 07:54:11;;;;;;;35.50;26.65;;;;;;;15.55;89.19;101951.91;4978313;28;20510;-85
2021/05/31 07:56:39;;;;;;;37.83;26.98;;;;;;;15.61;89.59;101948.50;4971838;28;20581;-84
2021/05/31 07:59:04;;;;;;;38.45;26.35;;;;;;;15.46;89.24;101937.53;5003234;28;20061;-85
2021/05/31 08:01:31;;;;;;;37.20;26.52;;;;;;;15.50;89.32;101938.88;5003198;28;20057;-84
2021/05/31 08:03:56;;;;;;;34.88;25.52;;;;;;;15.60;88.18;101944.13;5002960;28;20319;-84
2021/05/31 08:06:21;;;;;;;33.28;25.33;;;;;;;15.81;88.00;101940.09;4990889;28;20038;-84
2021/05/31 08:08:47;;;;;;;37.38;26.15;;;;;;;15.81;87.41;101949.03;4990410;28;20053;-84
2021/05/31 08:11:13;;;;;;;34.08;25.63;;;;;;;15.81;87.62;101949.03;4985213;28;20355;-84
2021/05/31 08:13:39;;;;;;;34.75;25.88;;;;;;;15.88;88.40;101947.38;5002579;28;20053;-84
2021/05/31 08:16:06;;;;;;;34.95;25.88;;;;;;;15.81;87.85;101946.34;4972138;28;20089;-84
2021/05/31 08:18:32;;;;;;;33.70;24.83;;;;;;;15.84;88.40;101945.16;4955537;28;20642;-85
2021/05/31 08:20:58;;;;;;;30.27;24.25;;;;;;;15.85;87.43;101938.72;4986676;28;20060;-84
2021/05/31 08:23:24;;;;;;;29.88;23.38;;;;;;;15.87;87.24;101944.81;4958901;28;20421;-84
2021/05/31 08:25:49;;;;;;;31.75;23.15;;;;;;;16.00;88.21;101945.97;4986283;28;20172;-84
2021/05/31 08:28:15;;;;;;;28.27;22.50;;;;;;;16.05;87.44;101945.44;4990637;28;20042;-84
2021/05/31 08:30:42;;;;;;;29.38;22.95;;;;;;;16.13;87.38;101950.84;4999101;28;20419;-84
2021/05/31 08:33:08;;;;;;;31.55;24.63;;;;;;;16.16;86.16;101945.09;4971329;28;20039;-85
2021/05/31 08:35:37;;;;;;;27.95;23.30;;;;;;;16.30;86.95;101940.81;4987227;28;20114;-85
2021/05/31 08:38:03;;;;;;;29.67;22.75;;;;;;;16.42;86.86;101944.84;4990018;28;20321;-84
2021/05/31 08:40:28;;;;;;;30.20;22.92;;;;;;;16.42;85.76;101944.00;4988143;28;20394;-84
2021/05/31 08:42:54;;;;;;;28.00;22.63;;;;;;;16.42;86.52;101950.25;4969683;28;20060;-84
2021/05/31 08:45:25;;;;;;;29.92;23.60;;;;;;;16.39;85.43;101938.94;4982397;28;20130;-85
2021/05/31 08:47:52;;;;;;;28.13;21.40;;;;;;;16.50;86.19;101938.56;5000955;28;20045;-85
2021/05/31 08:50:21;;;;;;;27.88;21.88;;;;;;;16.69;85.00;101934.59;4987858;28;20073;-84
2021/05/31 08:52:48;;;;;;;32.42;22.85;;;;;;;16.73;85.62;101932.34;4967600;28;20120;-84
2021/05/31 08:55:17;;;;;;;28.75;22.30;;;;;;;16.80;84.61;101930.66;4970267;28;20033;-84
2021/05/31 08:57:42;;;;;;;27.95;22.10;;;;;;;16.88;84.41;101934.16;4955719;28;20065;-84
2021/05/31 09:00:12;;;;;;;28.63;22.25;;;;;;;17.00;84.10;101928.31;5000331;28;20038;-85
2021/05/31 09:02:38;;;;;;;26.30;21.30;;;;;;;17.00;83.34;101933.75;4968352;28;20124;-84
2021/05/31 09:05:05;;;;;;;26.23;20.42;;;;;;;16.96;82.65;101930.56;4970002;28;20367;-84
2021/05/31 09:07:31;;;;;;;27.23;20.38;;;;;;;17.07;83.94;101929.31;4987400;28;20053;-84
2021/05/31 09:09:57;;;;;;;26.75;20.65;;;;;;;17.02;83.02;101931.72;5005494;28;20038;-85
2021/05/31 09:12:28;;;;;;;28.85;21.23;;;;;;;17.12;82.37;101924.19;5006561;28;20663;-84
2021/05/31 09:14:58;;;;;;;25.92;20.63;;;;;;;17.24;83.38;101919.19;4972914;28;20053;-85
2021/05/31 09:17:28;;;;;;;24.50;20.05;;;;;;;17.38;82.37;101923.84;5002634;28;20108;-84
2021/05/31 09:19:54;;;;;;;24.88;19.95;;;;;;;17.54;82.42;101917.41;5005112;28;20526;-84
2021/05/31 09:22:21;;;;;;;27.75;19.10;;;;;;;17.61;81.03;101910.25;4985654;28;20096;-84
2021/05/31 09:25:02;;;;;;;23.45;18.13;;;;;;;17.76;80.28;101915.69;4987829;28;20042;-84
2021/05/31 09:27:29;;;;;;;20.60;16.27;;;;;;;17.96;78.38;101907.91;5002987;28;20080;-85
2021/05/31 09:30:00;;;;;;;22.02;17.77;;;;;;;18.02;77.91;101905.28;4972601;28;20666;-84
2021/05/31 09:32:27;;;;;;;22.05;17.05;;;;;;;18.20;77.33;101907.63;4964287;28;20037;-85
2021/05/31 09:35:11;;;;;;;21.30;15.73;;;;;;;18.29;77.99;101916.50;5004840;28;20908;-84
2021/05/31 09:37:47;;;;;;;21.27;16.50;;;;;;;18.35;74.62;101907.59;4980915;28;20048;-85
2021/05/31 09:40:23;;;;;;;22.08;17.15;;;;;;;18.37;74.96;101907.44;4987462;28;20108;-85
2021/05/31 09:42:50;;;;;;;19.10;15.93;;;;;;;18.40;75.74;101901.63;5005239;28;20348;-84
2021/05/31 09:45:17;;;;;;;21.08;16.75;;;;;;;18.51;74.66;101903.00;4980199;28;20042;-84
2021/05/31 09:47:43;;;;;;;21.52;17.33;;;;;;;18.61;75.69;101904.38;4985687;28;20200;-84
2021/05/31 09:50:09;;;;;;;24.67;17.85;;;;;;;18.68;74.37;101910.75;4984494;28;20030;-84
2021/05/31 09:52:35;;;;;;;19.98;15.02;;;;;;;18.71;73.36;101904.94;4982151;28;20491;-85
2021/05/31 09:55:05;;;;;;;23.63;17.98;;;;;;;18.92;73.03;101897.88;4985868;28;20053;-84
2021/05/31 09:57:35;;;;;;;22.77;17.02;;;;;;;18.88;73.58;101888.44;4988224;28;20060;-84
2021/05/31 10:00:13;;;;;;;22.02;17.48;;;;;;;18.97;74.48;101891.88;4991543;28;20046;-84
2021/05/31 10:10:14;;;;;;;19.48;14.75;;;;;;;19.24;69.32;101882.06;5003600;28;20041;-85
2021/05/31 10:12:40;;;;;;;20.13;15.68;;;;;;;19.21;70.77;101888.75;4967271;28;20042;-85
2021/05/31 10:15:08;;;;;;;19.08;14.77;;;;;;;19.36;68.80;101883.22;5004590;28;20235;-85
2021/05/31 10:17:34;;;;;;;21.25;15.27;;;;;;;19.32;69.70;101880.06;4998966;28;20132;-85
2021/05/31 10:20:03;;;;;;;17.30;13.40;;;;;;;19.51;67.52;101884.00;5006105;28;20506;-85
2021/05/31 10:22:33;;;;;;;19.00;14.88;;;;;;;19.72;69.08;101874.97;4997631;28;20164;-85
2021/05/31 10:25:05;;;;;;;19.73;13.60;;;;;;;19.72;66.43;101874.97;5004994;28;20065;-85
2021/05/31 10:27:32;;;;;;;17.00;13.63;;;;;;;19.82;66.81;101870.03;5005415;28;20038;-84
2021/05/31 10:30:03;;;;;;;16.40;11.68;;;;;;;19.90;66.19;101870.91;5004455;28;20040;-85
2021/05/31 10:32:28;;;;;;;17.20;11.85;;;;;;;20.11;65.95;101875.41;4981971;28;20131;-85
2021/05/31 10:34:55;;;;;;;17.30;12.57;;;;;;;20.14;65.60;101864.09;4985420;28;20148;-85
2021/05/31 10:37:28;;;;;;;16.23;12.75;;;;;;;20.13;63.58;101868.72;4987415;28;20213;-85
2021/05/31 10:40:08;;;;;;;16.98;11.52;;;;;;;20.26;63.72;101867.97;5002381;28;20081;-85
2021/05/31 10:42:47;;;;;;;14.40;10.73;;;;;;;20.34;61.25;101862.34;4982863;28;20496;-85
2021/05/31 10:45:26;;;;;;;12.68;10.50;;;;;;;20.53;64.27;101855.31;4984778;28;20494;-85
2021/05/31 10:48:01;;;;;;;12.30;9.57;;;;;;;20.54;60.82;101856.97;4981304;28;20053;-85
2021/05/31 10:50:30;;;;;;;13.55;8.88;;;;;;;20.71;63.11;101852.00;4980769;28;20873;-85
2021/05/31 10:52:56;;;;;;;15.38;10.63;;;;;;;20.74;61.99;101851.59;4986881;28;20061;-85
2021/05/31 10:55:23;;;;;;;13.60;10.02;;;;;;;20.91;62.87;101850.16;4967123;28;20069;-85
2021/05/31 10:57:48;;;;;;;13.82;10.30;;;;;;;21.00;61.85;101845.34;4979332;28;20103;-85
2021/05/31 11:00:22;;;;;;;11.77;8.93;;;;;;;21.06;59.95;101846.41;4968232;28;20133;-85
2021/05/31 11:02:48;;;;;;;13.48;8.82;;;;;;;21.10;59.72;101837.59;4980038;28;20085;-85
2021/05/31 11:05:14;;;;;;;13.55;8.73;;;;;;;21.09;59.66;101843.25;4996940;28;20132;-85
2021/05/31 11:07:41;;;;;;;10.77;8.10;;;;;;;21.15;57.60;101836.97;4994885;28;20149;-85
2021/05/31 11:10:19;;;;;;;9.80;7.10;;;;;;;21.28;60.15;101836.13;4952562;28;20048;-85
2021/05/31 11:12:45;;;;;;;10.68;7.38;;;;;;;21.30;57.93;101826.69;4981320;28;20065;-85
2021/05/31 11:15:13;;;;;;;7.50;5.90;;;;;;;21.36;58.23;101836.78;4983839;28;20050;-85
2021/05/31 11:17:50;;;;;;;10.17;7.07;;;;;;;21.48;56.98;101834.25;4986117;28;20050;-85
2021/05/31 11:20:16;;;;;;;7.85;6.55;;;;;;;21.43;58.09;101828.59;4997920;28;20041;-86
2021/05/31 11:22:56;;;;;;;9.00;6.63;;;;;;;21.52;56.32;101826.47;4983194;28;20541;-85
2021/05/31 11:25:24;;;;;;;8.45;6.43;;;;;;;21.50;58.00;101821.25;4996266;28;22145;-85
2021/05/31 11:27:58;;;;;;;12.05;7.63;;;;;;;21.53;54.55;101812.63;4974689;28;20046;-85
2021/05/31 11:30:28;;;;;;;12.30;7.07;;;;;;;21.43;54.15;101814.09;4992361;28;20054;-85
2021/05/31 11:32:56;;;;;;;11.75;8.40;;;;;;;21.62;55.35;101805.88;4987151;28;20046;-85
2021/05/31 11:35:22;;;;;;;9.38;7.20;;;;;;;21.76;55.95;101801.22;5008339;28;20513;-85